sensor_id;sensor_type;location;lat;lon;timestamp;P1;durP1;ratioP1;P2;durP2;ratioP2
37077;SDS011;22989;55.998;37.212;2022-08-21T00:02:16;40.42;;;26.98;;
37077;SDS011;22989;55.998;37.212;2022-08-21T00:04:43;44.70;;;26.52;;
37077;SDS011;22989;55.998;37.212;2022-08-21T00:07:09;51.30;;;29.70;;
37077;SDS011;22989;55.998;37.212;2022-08-21T00:09:36;53.10;;;30.27;;
37077;SDS011;22989;55.998;37.212;2022-08-21T00:12:02;47.70;;;28.10;;
37077;SDS011;22989;55.998;37.212;2022-08-21T00:14:29;53.30;;;28.85;;
37077;SDS011;22989;55.998;37.212;2022-08-21T00:16:54;49.58;;;29.00;;
37077;SDS011;22989;55.998;37.212;2022-08-21T00:19:20;46.47;;;29.73;;
37077;SDS011;22989;55.998;37.212;2022-08-21T00:21:50;46.78;;;28.20;;
37077;SDS011;22989;55.998;37.212;2022-08-21T00:24:17;51.08;;;30.80;;
37077;SDS011;22989;55.998;37.212;2022-08-21T00:26:44;48.58;;;30.52;;
37077;SDS011;22989;55.998;37.212;2022-08-21T00:29:10;51.50;;;30.83;;
37077;SDS011;22989;55.998;37.212;2022-08-21T00:31:36;47.20;;;29.77;;
37077;SDS011;22989;55.998;37.212;2022-08-21T00:34:02;53.92;;;30.50;;
37077;SDS011;22989;55.998;37.212;2022-08-21T00:36:28;61.42;;;32.17;;
37077;SDS011;22989;55.998;37.212;2022-08-21T00:38:55;55.67;;;31.42;;
37077;SDS011;22989;55.998;37.212;2022-08-21T00:41:21;50.17;;;29.77;;
37077;SDS011;22989;55.998;37.212;2022-08-21T00:43:48;48.83;;;30.08;;
37077;SDS011;22989;55.998;37.212;2022-08-21T00:46:15;56.45;;;33.47;;
37077;SDS011;22989;55.998;37.212;2022-08-21T00:48:41;51.53;;;31.73;;
37077;SDS011;22989;55.998;37.212;2022-08-21T00:51:12;48.55;;;31.73;;
37077;SDS011;22989;55.998;37.212;2022-08-21T00:53:47;52.10;;;31.80;;
37077;SDS011;22989;55.998;37.212;2022-08-21T00:56:17;48.97;;;30.20;;
37077;SDS011;22989;55.998;37.212;2022-08-21T00:58:46;49.10;;;30.85;;
37077;SDS011;22989;55.998;37.212;2022-08-21T01:01:13;50.83;;;30.95;;
37077;SDS011;22989;55.998;37.212;2022-08-21T01:03:39;51.78;;;30.50;;
37077;SDS011;22989;55.998;37.212;2022-08-21T01:06:05;50.28;;;31.80;;
37077;SDS011;22989;55.998;37.212;2022-08-21T01:08:31;47.10;;;29.70;;
37077;SDS011;22989;55.998;37.212;2022-08-21T01:10:58;54.13;;;31.58;;
37077;SDS011;22989;55.998;37.212;2022-08-21T01:13:26;54.55;;;30.52;;
37077;SDS011;22989;55.998;37.212;2022-08-21T01:15:55;50.15;;;31.73;;
37077;SDS011;22989;55.998;37.212;2022-08-21T01:18:25;51.20;;;29.58;;
37077;SDS011;22989;55.998;37.212;2022-08-21T01:21:00;48.45;;;31.10;;
37077;SDS011;22989;55.998;37.212;2022-08-21T01:23:25;52.60;;;30.77;;
37077;SDS011;22989;55.998;37.212;2022-08-21T01:25:51;53.85;;;30.15;;
37077;SDS011;22989;55.998;37.212;2022-08-21T01:28:17;50.60;;;29.90;;
37077;SDS011;22989;55.998;37.212;2022-08-21T01:30:44;51.75;;;31.02;;
37077;SDS011;22989;55.998;37.212;2022-08-21T01:33:10;47.72;;;30.08;;
37077;SDS011;22989;55.998;37.212;2022-08-21T01:35:36;48.78;;;29.63;;
37077;SDS011;22989;55.998;37.212;2022-08-21T01:38:02;53.30;;;31.02;;
37077;SDS011;22989;55.998;37.212;2022-08-21T01:40:28;50.85;;;29.80;;
37077;SDS011;22989;55.998;37.212;2022-08-21T01:42:54;52.13;;;31.42;;
37077;SDS011;22989;55.998;37.212;2022-08-21T01:45:20;48.47;;;30.27;;
37077;SDS011;22989;55.998;37.212;2022-08-21T01:47:45;54.33;;;30.92;;
37077;SDS011;22989;55.998;37.212;2022-08-21T01:50:13;54.00;;;30.33;;
37077;SDS011;22989;55.998;37.212;2022-08-21T01:52:40;51.42;;;31.35;;
37077;SDS011;22989;55.998;37.212;2022-08-21T01:55:07;45.38;;;30.00;;
37077;SDS011;22989;55.998;37.212;2022-08-21T01:57:34;49.53;;;30.40;;
37077;SDS011;22989;55.998;37.212;2022-08-21T02:00:00;48.25;;;29.00;;
37077;SDS011;22989;55.998;37.212;2022-08-21T02:02:37;48.65;;;29.35;;
37077;SDS011;22989;55.998;37.212;2022-08-21T02:05:04;44.28;;;27.52;;
37077;SDS011;22989;55.998;37.212;2022-08-21T02:07:40;54.05;;;29.83;;
37077;SDS011;22989;55.998;37.212;2022-08-21T02:10:09;47.45;;;29.15;;
37077;SDS011;22989;55.998;37.212;2022-08-21T02:12:36;51.00;;;30.00;;
37077;SDS011;22989;55.998;37.212;2022-08-21T02:15:03;46.55;;;26.85;;
37077;SDS011;22989;55.998;37.212;2022-08-21T02:17:38;50.20;;;28.83;;
37077;SDS011;22989;55.998;37.212;2022-08-21T02:20:04;47.92;;;27.05;;
37077;SDS011;22989;55.998;37.212;2022-08-21T02:22:30;45.42;;;26.30;;
37077;SDS011;22989;55.998;37.212;2022-08-21T02:24:56;46.58;;;27.25;;
37077;SDS011;22989;55.998;37.212;2022-08-21T02:27:22;44.80;;;27.52;;
37077;SDS011;22989;55.998;37.212;2022-08-21T02:29:49;45.38;;;26.55;;
37077;SDS011;22989;55.998;37.212;2022-08-21T02:32:15;41.85;;;25.55;;
37077;SDS011;22989;55.998;37.212;2022-08-21T02:34:40;41.97;;;26.70;;
37077;SDS011;22989;55.998;37.212;2022-08-21T02:37:06;45.28;;;27.92;;
37077;SDS011;22989;55.998;37.212;2022-08-21T02:39:32;48.00;;;25.55;;
37077;SDS011;22989;55.998;37.212;2022-08-21T02:41:57;41.50;;;25.30;;
37077;SDS011;22989;55.998;37.212;2022-08-21T02:44:23;43.75;;;25.73;;
37077;SDS011;22989;55.998;37.212;2022-08-21T02:46:49;45.67;;;26.00;;
37077;SDS011;22989;55.998;37.212;2022-08-21T02:49:15;43.88;;;26.92;;
37077;SDS011;22989;55.998;37.212;2022-08-21T02:51:40;46.75;;;25.60;;
37077;SDS011;22989;55.998;37.212;2022-08-21T02:54:06;42.88;;;25.48;;
37077;SDS011;22989;55.998;37.212;2022-08-21T02:56:32;44.63;;;25.48;;
37077;SDS011;22989;55.998;37.212;2022-08-21T02:58:57;45.45;;;25.75;;
37077;SDS011;22989;55.998;37.212;2022-08-21T03:01:23;44.88;;;26.55;;
37077;SDS011;22989;55.998;37.212;2022-08-21T03:03:49;45.28;;;27.38;;
37077;SDS011;22989;55.998;37.212;2022-08-21T03:06:16;43.33;;;26.15;;
37077;SDS011;22989;55.998;37.212;2022-08-21T03:08:44;41.85;;;25.10;;
37077;SDS011;22989;55.998;37.212;2022-08-21T03:11:10;41.70;;;26.70;;
37077;SDS011;22989;55.998;37.212;2022-08-21T03:13:37;43.88;;;26.95;;
37077;SDS011;22989;55.998;37.212;2022-08-21T03:16:04;41.30;;;27.25;;
37077;SDS011;22989;55.998;37.212;2022-08-21T03:18:30;42.75;;;29.08;;
37077;SDS011;22989;55.998;37.212;2022-08-21T03:20:55;50.08;;;27.98;;
37077;SDS011;22989;55.998;37.212;2022-08-21T03:23:21;46.35;;;27.80;;
37077;SDS011;22989;55.998;37.212;2022-08-21T03:25:47;47.30;;;28.13;;
37077;SDS011;22989;55.998;37.212;2022-08-21T03:28:18;46.15;;;26.95;;
37077;SDS011;22989;55.998;37.212;2022-08-21T03:30:46;46.97;;;28.42;;
37077;SDS011;22989;55.998;37.212;2022-08-21T03:33:15;48.92;;;29.40;;
37077;SDS011;22989;55.998;37.212;2022-08-21T03:35:42;47.55;;;27.38;;
37077;SDS011;22989;55.998;37.212;2022-08-21T03:38:10;46.33;;;27.48;;
37077;SDS011;22989;55.998;37.212;2022-08-21T03:40:38;45.17;;;28.00;;
37077;SDS011;22989;55.998;37.212;2022-08-21T03:43:03;45.90;;;27.70;;
37077;SDS011;22989;55.998;37.212;2022-08-21T03:45:30;47.10;;;27.17;;
37077;SDS011;22989;55.998;37.212;2022-08-21T03:48:00;49.13;;;29.30;;
37077;SDS011;22989;55.998;37.212;2022-08-21T03:50:28;52.40;;;31.30;;
37077;SDS011;22989;55.998;37.212;2022-08-21T03:52:56;47.72;;;28.58;;
37077;SDS011;22989;55.998;37.212;2022-08-21T03:55:23;45.95;;;29.67;;
37077;SDS011;22989;55.998;37.212;2022-08-21T03:57:49;50.58;;;31.45;;
37077;SDS011;22989;55.998;37.212;2022-08-21T04:00:16;47.50;;;31.20;;
37077;SDS011;22989;55.998;37.212;2022-08-21T04:02:42;51.35;;;31.55;;
37077;SDS011;22989;55.998;37.212;2022-08-21T04:05:09;44.90;;;30.52;;
37077;SDS011;22989;55.998;37.212;2022-08-21T04:07:37;50.80;;;31.25;;
37077;SDS011;22989;55.998;37.212;2022-08-21T04:10:04;47.78;;;30.90;;
37077;SDS011;22989;55.998;37.212;2022-08-21T04:12:31;49.13;;;31.45;;
37077;SDS011;22989;55.998;37.212;2022-08-21T04:14:57;46.45;;;29.98;;
37077;SDS011;22989;55.998;37.212;2022-08-21T04:17:23;51.28;;;31.80;;
37077;SDS011;22989;55.998;37.212;2022-08-21T04:19:49;57.67;;;32.42;;
37077;SDS011;22989;55.998;37.212;2022-08-21T04:22:15;50.70;;;32.17;;
37077;SDS011;22989;55.998;37.212;2022-08-21T04:24:41;51.50;;;32.40;;
37077;SDS011;22989;55.998;37.212;2022-08-21T04:27:07;55.95;;;32.58;;
37077;SDS011;22989;55.998;37.212;2022-08-21T04:29:33;51.92;;;32.85;;
37077;SDS011;22989;55.998;37.212;2022-08-21T04:31:59;48.90;;;33.15;;
37077;SDS011;22989;55.998;37.212;2022-08-21T04:34:24;54.97;;;34.45;;
37077;SDS011;22989;55.998;37.212;2022-08-21T04:36:50;49.28;;;32.38;;
37077;SDS011;22989;55.998;37.212;2022-08-21T04:39:16;55.67;;;34.08;;
37077;SDS011;22989;55.998;37.212;2022-08-21T04:41:42;50.95;;;32.95;;
37077;SDS011;22989;55.998;37.212;2022-08-21T04:44:07;45.47;;;32.72;;
37077;SDS011;22989;55.998;37.212;2022-08-21T04:46:33;50.97;;;34.40;;
37077;SDS011;22989;55.998;37.212;2022-08-21T04:48:59;53.03;;;33.92;;
37077;SDS011;22989;55.998;37.212;2022-08-21T04:51:27;54.95;;;34.72;;
37077;SDS011;22989;55.998;37.212;2022-08-21T04:54:10;47.38;;;33.50;;
37077;SDS011;22989;55.998;37.212;2022-08-21T04:56:41;52.75;;;34.40;;
37077;SDS011;22989;55.998;37.212;2022-08-21T04:59:30;48.90;;;32.40;;
37077;SDS011;22989;55.998;37.212;2022-08-21T05:02:00;51.97;;;36.13;;
37077;SDS011;22989;55.998;37.212;2022-08-21T05:04:28;58.30;;;36.00;;
37077;SDS011;22989;55.998;37.212;2022-08-21T05:06:56;55.42;;;34.55;;
37077;SDS011;22989;55.998;37.212;2022-08-21T05:09:25;54.00;;;35.35;;
37077;SDS011;22989;55.998;37.212;2022-08-21T05:11:52;54.47;;;36.58;;
37077;SDS011;22989;55.998;37.212;2022-08-21T05:14:18;52.47;;;36.85;;
37077;SDS011;22989;55.998;37.212;2022-08-21T05:16:44;54.58;;;35.40;;
37077;SDS011;22989;55.998;37.212;2022-08-21T05:19:11;52.90;;;35.70;;
37077;SDS011;22989;55.998;37.212;2022-08-21T05:21:38;50.85;;;36.35;;
37077;SDS011;22989;55.998;37.212;2022-08-21T05:24:07;50.78;;;36.00;;
37077;SDS011;22989;55.998;37.212;2022-08-21T05:26:34;52.97;;;36.78;;
37077;SDS011;22989;55.998;37.212;2022-08-21T05:29:01;50.97;;;35.55;;
37077;SDS011;22989;55.998;37.212;2022-08-21T05:31:28;51.60;;;36.60;;
37077;SDS011;22989;55.998;37.212;2022-08-21T05:33:53;56.38;;;35.60;;
37077;SDS011;22989;55.998;37.212;2022-08-21T05:36:19;51.92;;;36.97;;
37077;SDS011;22989;55.998;37.212;2022-08-21T05:38:45;57.88;;;36.47;;
37077;SDS011;22989;55.998;37.212;2022-08-21T05:41:11;50.60;;;36.00;;
37077;SDS011;22989;55.998;37.212;2022-08-21T05:43:37;51.85;;;36.40;;
37077;SDS011;22989;55.998;37.212;2022-08-21T05:46:03;65.38;;;34.58;;
37077;SDS011;22989;55.998;37.212;2022-08-21T05:48:31;51.65;;;36.28;;
37077;SDS011;22989;55.998;37.212;2022-08-21T05:50:58;53.53;;;36.55;;
37077;SDS011;22989;55.998;37.212;2022-08-21T05:53:29;56.50;;;36.50;;
37077;SDS011;22989;55.998;37.212;2022-08-21T05:55:55;48.70;;;36.47;;
37077;SDS011;22989;55.998;37.212;2022-08-21T05:58:20;54.60;;;36.10;;
37077;SDS011;22989;55.998;37.212;2022-08-21T06:00:48;54.30;;;36.00;;
37077;SDS011;22989;55.998;37.212;2022-08-21T06:03:16;48.38;;;36.28;;
37077;SDS011;22989;55.998;37.212;2022-08-21T06:05:47;52.90;;;34.58;;
37077;SDS011;22989;55.998;37.212;2022-08-21T06:08:16;47.42;;;34.35;;
37077;SDS011;22989;55.998;37.212;2022-08-21T06:10:43;56.65;;;36.88;;
37077;SDS011;22989;55.998;37.212;2022-08-21T06:13:10;53.65;;;35.97;;
37077;SDS011;22989;55.998;37.212;2022-08-21T06:15:37;53.33;;;35.08;;
37077;SDS011;22989;55.998;37.212;2022-08-21T06:18:02;49.63;;;34.40;;
37077;SDS011;22989;55.998;37.212;2022-08-21T06:20:28;53.60;;;35.63;;
37077;SDS011;22989;55.998;37.212;2022-08-21T06:22:54;57.92;;;33.45;;
37077;SDS011;22989;55.998;37.212;2022-08-21T06:25:20;44.70;;;31.73;;
37077;SDS011;22989;55.998;37.212;2022-08-21T06:27:46;50.53;;;31.67;;
37077;SDS011;22989;55.998;37.212;2022-08-21T06:30:12;45.15;;;31.35;;
37077;SDS011;22989;55.998;37.212;2022-08-21T06:32:38;42.65;;;31.25;;
37077;SDS011;22989;55.998;37.212;2022-08-21T06:35:04;44.35;;;30.77;;
37077;SDS011;22989;55.998;37.212;2022-08-21T06:37:31;49.60;;;30.70;;
37077;SDS011;22989;55.998;37.212;2022-08-21T06:39:57;42.03;;;29.65;;
37077;SDS011;22989;55.998;37.212;2022-08-21T06:42:22;49.33;;;29.05;;
37077;SDS011;22989;55.998;37.212;2022-08-21T06:44:48;42.88;;;29.70;;
37077;SDS011;22989;55.998;37.212;2022-08-21T06:47:14;49.88;;;29.92;;
37077;SDS011;22989;55.998;37.212;2022-08-21T06:49:40;47.20;;;28.77;;
37077;SDS011;22989;55.998;37.212;2022-08-21T06:52:10;42.38;;;28.80;;
37077;SDS011;22989;55.998;37.212;2022-08-21T06:54:38;41.65;;;29.55;;
37077;SDS011;22989;55.998;37.212;2022-08-21T06:57:04;44.65;;;28.75;;
37077;SDS011;22989;55.998;37.212;2022-08-21T06:59:30;40.60;;;27.00;;
37077;SDS011;22989;55.998;37.212;2022-08-21T07:01:57;47.33;;;28.70;;
37077;SDS011;22989;55.998;37.212;2022-08-21T07:04:24;46.80;;;28.67;;
37077;SDS011;22989;55.998;37.212;2022-08-21T07:06:50;43.40;;;28.15;;
37077;SDS011;22989;55.998;37.212;2022-08-21T07:09:16;40.55;;;28.58;;
37077;SDS011;22989;55.998;37.212;2022-08-21T07:11:41;43.83;;;27.35;;
37077;SDS011;22989;55.998;37.212;2022-08-21T07:14:08;45.50;;;27.13;;
37077;SDS011;22989;55.998;37.212;2022-08-21T07:16:34;40.35;;;25.95;;
37077;SDS011;22989;55.998;37.212;2022-08-21T07:19:00;36.45;;;26.45;;
37077;SDS011;22989;55.998;37.212;2022-08-21T07:21:26;44.75;;;27.42;;
37077;SDS011;22989;55.998;37.212;2022-08-21T07:23:52;43.92;;;27.80;;
37077;SDS011;22989;55.998;37.212;2022-08-21T07:26:20;42.03;;;28.67;;
37077;SDS011;22989;55.998;37.212;2022-08-21T07:28:47;41.85;;;28.88;;
37077;SDS011;22989;55.998;37.212;2022-08-21T07:31:14;50.42;;;29.13;;
37077;SDS011;22989;55.998;37.212;2022-08-21T07:33:42;41.63;;;27.27;;
37077;SDS011;22989;55.998;37.212;2022-08-21T07:36:09;39.33;;;26.67;;
37077;SDS011;22989;55.998;37.212;2022-08-21T07:38:35;42.65;;;27.73;;
37077;SDS011;22989;55.998;37.212;2022-08-21T07:41:01;38.58;;;26.98;;
37077;SDS011;22989;55.998;37.212;2022-08-21T07:43:39;46.17;;;29.20;;
37077;SDS011;22989;55.998;37.212;2022-08-21T07:46:05;39.08;;;28.85;;
37077;SDS011;22989;55.998;37.212;2022-08-21T07:48:31;43.72;;;28.40;;
37077;SDS011;22989;55.998;37.212;2022-08-21T07:50:57;44.17;;;27.73;;
37077;SDS011;22989;55.998;37.212;2022-08-21T07:53:24;38.85;;;27.00;;
37077;SDS011;22989;55.998;37.212;2022-08-21T07:55:49;44.13;;;28.17;;
37077;SDS011;22989;55.998;37.212;2022-08-21T07:58:15;44.30;;;28.90;;
37077;SDS011;22989;55.998;37.212;2022-08-21T08:00:41;43.45;;;28.05;;
37077;SDS011;22989;55.998;37.212;2022-08-21T08:03:07;46.83;;;27.33;;
37077;SDS011;22989;55.998;37.212;2022-08-21T08:05:36;47.80;;;27.70;;
37077;SDS011;22989;55.998;37.212;2022-08-21T08:10:36;44.80;;;27.27;;
37077;SDS011;22989;55.998;37.212;2022-08-21T08:13:04;41.85;;;26.80;;
37077;SDS011;22989;55.998;37.212;2022-08-21T08:15:30;48.78;;;27.67;;
37077;SDS011;22989;55.998;37.212;2022-08-21T08:17:56;36.70;;;25.05;;
37077;SDS011;22989;55.998;37.212;2022-08-21T08:20:23;47.85;;;26.85;;
37077;SDS011;22989;55.998;37.212;2022-08-21T08:22:51;43.33;;;25.23;;
37077;SDS011;22989;55.998;37.212;2022-08-21T08:25:18;41.38;;;25.30;;
37077;SDS011;22989;55.998;37.212;2022-08-21T08:27:45;39.97;;;26.38;;
37077;SDS011;22989;55.998;37.212;2022-08-21T08:30:13;40.50;;;24.63;;
37077;SDS011;22989;55.998;37.212;2022-08-21T08:32:40;42.60;;;23.27;;
37077;SDS011;22989;55.998;37.212;2022-08-21T08:35:06;42.45;;;22.40;;
37077;SDS011;22989;55.998;37.212;2022-08-21T08:37:33;39.28;;;22.73;;
37077;SDS011;22989;55.998;37.212;2022-08-21T08:40:03;42.95;;;25.98;;
37077;SDS011;22989;55.998;37.212;2022-08-21T08:42:34;47.90;;;24.23;;
37077;SDS011;22989;55.998;37.212;2022-08-21T08:47:36;32.95;;;21.27;;
37077;SDS011;22989;55.998;37.212;2022-08-21T08:50:28;41.30;;;22.90;;
37077;SDS011;22989;55.998;37.212;2022-08-21T08:53:02;35.42;;;22.77;;
37077;SDS011;22989;55.998;37.212;2022-08-21T08:55:33;36.22;;;21.17;;
37077;SDS011;22989;55.998;37.212;2022-08-21T08:58:06;39.00;;;20.65;;
37077;SDS011;22989;55.998;37.212;2022-08-21T09:00:34;41.05;;;20.98;;
37077;SDS011;22989;55.998;37.212;2022-08-21T09:03:00;34.60;;;18.95;;
37077;SDS011;22989;55.998;37.212;2022-08-21T09:05:29;33.35;;;17.45;;
37077;SDS011;22989;55.998;37.212;2022-08-21T09:10:45;29.60;;;15.70;;
37077;SDS011;22989;55.998;37.212;2022-08-21T09:21:31;36.75;;;16.50;;
37077;SDS011;22989;55.998;37.212;2022-08-21T09:24:30;25.67;;;15.80;;
37077;SDS011;22989;55.998;37.212;2022-08-21T09:27:14;34.55;;;16.88;;
37077;SDS011;22989;55.998;37.212;2022-08-21T09:29:42;31.20;;;16.75;;
37077;SDS011;22989;55.998;37.212;2022-08-21T09:34:42;35.25;;;17.63;;
37077;SDS011;22989;55.998;37.212;2022-08-21T09:37:15;30.02;;;18.20;;
37077;SDS011;22989;55.998;37.212;2022-08-21T09:39:43;35.70;;;18.88;;
37077;SDS011;22989;55.998;37.212;2022-08-21T09:42:09;32.03;;;19.10;;
37077;SDS011;22989;55.998;37.212;2022-08-21T09:44:37;27.52;;;17.02;;
37077;SDS011;22989;55.998;37.212;2022-08-21T09:47:07;31.55;;;18.15;;
37077;SDS011;22989;55.998;37.212;2022-08-21T09:49:35;32.75;;;18.13;;
37077;SDS011;22989;55.998;37.212;2022-08-21T09:52:03;31.33;;;18.27;;
37077;SDS011;22989;55.998;37.212;2022-08-21T09:54:33;30.30;;;17.85;;
37077;SDS011;22989;55.998;37.212;2022-08-21T09:57:12;35.85;;;18.33;;
37077;SDS011;22989;55.998;37.212;2022-08-21T10:00:35;34.30;;;18.17;;
37077;SDS011;22989;55.998;37.212;2022-08-21T10:03:12;31.08;;;17.00;;
37077;SDS011;22989;55.998;37.212;2022-08-21T10:08:31;24.33;;;17.05;;
37077;SDS011;22989;55.998;37.212;2022-08-21T10:11:03;26.80;;;16.40;;
37077;SDS011;22989;55.998;37.212;2022-08-21T10:13:46;37.03;;;17.17;;
37077;SDS011;22989;55.998;37.212;2022-08-21T10:19:13;32.30;;;16.48;;
37077;SDS011;22989;55.998;37.212;2022-08-21T10:24:57;28.73;;;17.30;;
37077;SDS011;22989;55.998;37.212;2022-08-21T10:28:05;37.72;;;17.20;;
37077;SDS011;22989;55.998;37.212;2022-08-21T10:30:37;33.75;;;17.73;;
37077;SDS011;22989;55.998;37.212;2022-08-21T10:55:10;29.38;;;17.40;;
37077;SDS011;22989;55.998;37.212;2022-08-21T10:58:25;31.73;;;17.15;;
37077;SDS011;22989;55.998;37.212;2022-08-21T11:00:38;32.20;;;16.77;;
37077;SDS011;22989;55.998;37.212;2022-08-21T11:03:11;28.98;;;17.17;;
37077;SDS011;22989;55.998;37.212;2022-08-21T11:06:05;28.25;;;15.70;;
37077;SDS011;22989;55.998;37.212;2022-08-21T11:08:46;28.70;;;14.10;;
37077;SDS011;22989;55.998;37.212;2022-08-21T11:13:50;20.88;;;12.10;;
37077;SDS011;22989;55.998;37.212;2022-08-21T11:16:45;24.92;;;12.23;;
37077;SDS011;22989;55.998;37.212;2022-08-21T11:19:53;21.92;;;11.05;;
37077;SDS011;22989;55.998;37.212;2022-08-21T11:25:26;28.40;;;12.63;;
37077;SDS011;22989;55.998;37.212;2022-08-21T11:28:00;26.25;;;12.45;;
37077;SDS011;22989;55.998;37.212;2022-08-21T11:30:35;26.35;;;11.85;;
37077;SDS011;22989;55.998;37.212;2022-08-21T11:36:06;20.60;;;9.07;;
37077;SDS011;22989;55.998;37.212;2022-08-21T11:39:02;16.88;;;8.40;;
37077;SDS011;22989;55.998;37.212;2022-08-21T11:41:44;20.35;;;8.82;;
37077;SDS011;22989;55.998;37.212;2022-08-21T11:45:22;25.17;;;7.78;;
37077;SDS011;22989;55.998;37.212;2022-08-21T11:47:33;21.52;;;7.90;;
37077;SDS011;22989;55.998;37.212;2022-08-21T11:50:11;20.38;;;7.40;;
37077;SDS011;22989;55.998;37.212;2022-08-21T11:52:43;23.98;;;7.80;;
37077;SDS011;22989;55.998;37.212;2022-08-21T11:55:25;23.00;;;6.90;;
37077;SDS011;22989;55.998;37.212;2022-08-21T11:58:02;22.00;;;8.07;;
37077;SDS011;22989;55.998;37.212;2022-08-21T12:00:44;25.65;;;7.45;;
37077;SDS011;22989;55.998;37.212;2022-08-21T12:03:25;22.35;;;7.40;;
37077;SDS011;22989;55.998;37.212;2022-08-21T12:06:15;26.15;;;7.32;;
37077;SDS011;22989;55.998;37.212;2022-08-21T12:08:44;23.77;;;7.32;;
37077;SDS011;22989;55.998;37.212;2022-08-21T12:13:51;19.90;;;7.25;;
37077;SDS011;22989;55.998;37.212;2022-08-21T12:16:38;23.65;;;7.68;;
37077;SDS011;22989;55.998;37.212;2022-08-21T12:19:07;21.45;;;6.63;;
37077;SDS011;22989;55.998;37.212;2022-08-21T12:21:57;23.83;;;7.13;;
37077;SDS011;22989;55.998;37.212;2022-08-21T12:26:56;26.67;;;7.25;;
37077;SDS011;22989;55.998;37.212;2022-08-21T12:29:28;22.98;;;6.97;;
37077;SDS011;22989;55.998;37.212;2022-08-21T12:32:04;22.08;;;7.00;;
37077;SDS011;22989;55.998;37.212;2022-08-21T12:34:56;20.98;;;6.82;;
37077;SDS011;22989;55.998;37.212;2022-08-21T12:37:38;23.45;;;6.55;;
37077;SDS011;22989;55.998;37.212;2022-08-21T12:43:41;23.00;;;7.85;;
37077;SDS011;22989;55.998;37.212;2022-08-21T12:46:19;30.17;;;9.30;;
37077;SDS011;22989;55.998;37.212;2022-08-21T12:49:02;21.30;;;8.80;;
37077;SDS011;22989;55.998;37.212;2022-08-21T12:54:25;30.20;;;10.52;;
37077;SDS011;22989;55.998;37.212;2022-08-21T12:57:00;25.73;;;10.90;;
37077;SDS011;22989;55.998;37.212;2022-08-21T12:59:28;21.80;;;11.73;;
37077;SDS011;22989;55.998;37.212;2022-08-21T13:01:55;31.27;;;13.55;;
37077;SDS011;22989;55.998;37.212;2022-08-21T13:04:36;34.95;;;14.55;;
37077;SDS011;22989;55.998;37.212;2022-08-21T13:07:06;31.85;;;13.57;;
37077;SDS011;22989;55.998;37.212;2022-08-21T13:09:36;32.47;;;12.65;;
37077;SDS011;22989;55.998;37.212;2022-08-21T13:12:12;31.85;;;12.13;;
37077;SDS011;22989;55.998;37.212;2022-08-21T13:14:40;22.90;;;10.20;;
37077;SDS011;22989;55.998;37.212;2022-08-21T13:17:09;34.03;;;11.30;;
37077;SDS011;22989;55.998;37.212;2022-08-21T13:19:37;19.17;;;10.55;;
37077;SDS011;22989;55.998;37.212;2022-08-21T13:22:03;23.15;;;9.80;;
37077;SDS011;22989;55.998;37.212;2022-08-21T13:26:57;18.85;;;8.35;;
37077;SDS011;22989;55.998;37.212;2022-08-21T13:29:33;28.98;;;8.07;;
37077;SDS011;22989;55.998;37.212;2022-08-21T13:32:03;19.55;;;7.82;;
37077;SDS011;22989;55.998;37.212;2022-08-21T13:34:35;20.75;;;7.28;;
37077;SDS011;22989;55.998;37.212;2022-08-21T13:37:07;17.58;;;7.47;;
37077;SDS011;22989;55.998;37.212;2022-08-21T13:39:34;26.55;;;7.88;;
37077;SDS011;22989;55.998;37.212;2022-08-21T13:42:01;20.98;;;8.07;;
37077;SDS011;22989;55.998;37.212;2022-08-21T13:44:35;21.80;;;8.70;;
37077;SDS011;22989;55.998;37.212;2022-08-21T13:47:05;21.75;;;8.65;;
37077;SDS011;22989;55.998;37.212;2022-08-21T13:49:33;20.13;;;8.60;;
37077;SDS011;22989;55.998;37.212;2022-08-21T13:54:39;27.00;;;10.07;;
37077;SDS011;22989;55.998;37.212;2022-08-21T13:57:19;22.67;;;9.13;;
37077;SDS011;22989;55.998;37.212;2022-08-21T13:59:51;24.27;;;10.15;;
37077;SDS011;22989;55.998;37.212;2022-08-21T14:02:20;25.33;;;10.30;;
37077;SDS011;22989;55.998;37.212;2022-08-21T14:07:24;19.83;;;10.97;;
37077;SDS011;22989;55.998;37.212;2022-08-21T14:09:51;30.27;;;11.10;;
37077;SDS011;22989;55.998;37.212;2022-08-21T14:12:25;20.58;;;10.60;;
37077;SDS011;22989;55.998;37.212;2022-08-21T14:14:53;21.02;;;10.93;;
37077;SDS011;22989;55.998;37.212;2022-08-21T14:17:28;23.48;;;10.60;;
37077;SDS011;22989;55.998;37.212;2022-08-21T14:20:03;23.20;;;10.75;;
37077;SDS011;22989;55.998;37.212;2022-08-21T14:22:42;27.95;;;11.35;;
37077;SDS011;22989;55.998;37.212;2022-08-21T14:30:22;24.55;;;11.05;;
37077;SDS011;22989;55.998;37.212;2022-08-21T14:32:54;24.02;;;10.32;;
37077;SDS011;22989;55.998;37.212;2022-08-21T14:35:20;24.85;;;10.55;;
37077;SDS011;22989;55.998;37.212;2022-08-21T14:37:47;28.70;;;10.90;;
37077;SDS011;22989;55.998;37.212;2022-08-21T14:40:18;25.05;;;10.25;;
37077;SDS011;22989;55.998;37.212;2022-08-21T14:42:45;28.95;;;10.32;;
37077;SDS011;22989;55.998;37.212;2022-08-21T14:45:16;22.58;;;9.80;;
37077;SDS011;22989;55.998;37.212;2022-08-21T14:47:51;25.27;;;9.93;;
37077;SDS011;22989;55.998;37.212;2022-08-21T14:50:17;22.10;;;10.43;;
37077;SDS011;22989;55.998;37.212;2022-08-21T14:52:44;24.58;;;12.30;;
37077;SDS011;22989;55.998;37.212;2022-08-21T14:55:16;24.23;;;13.27;;
37077;SDS011;22989;55.998;37.212;2022-08-21T14:57:50;26.63;;;14.85;;
37077;SDS011;22989;55.998;37.212;2022-08-21T15:00:19;26.58;;;15.05;;
37077;SDS011;22989;55.998;37.212;2022-08-21T15:02:48;24.55;;;15.05;;
37077;SDS011;22989;55.998;37.212;2022-08-21T15:05:14;29.33;;;15.60;;
37077;SDS011;22989;55.998;37.212;2022-08-21T15:07:40;27.15;;;15.95;;
37077;SDS011;22989;55.998;37.212;2022-08-21T15:10:06;24.60;;;14.82;;
37077;SDS011;22989;55.998;37.212;2022-08-21T15:12:33;26.75;;;14.90;;
37077;SDS011;22989;55.998;37.212;2022-08-21T15:14:59;26.88;;;14.07;;
37077;SDS011;22989;55.998;37.212;2022-08-21T15:17:24;29.92;;;14.73;;
37077;SDS011;22989;55.998;37.212;2022-08-21T15:19:50;22.92;;;14.55;;
37077;SDS011;22989;55.998;37.212;2022-08-21T15:22:16;29.90;;;14.63;;
37077;SDS011;22989;55.998;37.212;2022-08-21T15:24:42;30.63;;;15.20;;
37077;SDS011;22989;55.998;37.212;2022-08-21T15:27:09;36.53;;;15.98;;
37077;SDS011;22989;55.998;37.212;2022-08-21T15:29:36;20.65;;;13.75;;
37077;SDS011;22989;55.998;37.212;2022-08-21T15:32:15;27.90;;;14.38;;
37077;SDS011;22989;55.998;37.212;2022-08-21T15:34:47;31.45;;;14.38;;
37077;SDS011;22989;55.998;37.212;2022-08-21T15:37:13;25.98;;;14.48;;
37077;SDS011;22989;55.998;37.212;2022-08-21T15:39:39;25.60;;;15.70;;
37077;SDS011;22989;55.998;37.212;2022-08-21T15:42:05;33.55;;;16.50;;
37077;SDS011;22989;55.998;37.212;2022-08-21T15:44:31;33.80;;;17.70;;
37077;SDS011;22989;55.998;37.212;2022-08-21T15:46:58;32.15;;;17.50;;
37077;SDS011;22989;55.998;37.212;2022-08-21T15:49:24;30.33;;;16.20;;